PWSweather.com
Personal Weather Stations
Station Observations
SHAHALMS1
Eftra, Falkenberg, HA

EftraFalkenberg, HA

Lat: 56.85, Lon: 12.65

Elevation: 140

Station Type:

http://hem.passagen.se/risarp101

High Low Average
Temperature 64.8°F18.2°C 52.2°F11.2°C 56.9°F13.8°C
Dew Point 56.5°F13.6°C 47.3°F8.5°C 50.4°F10.2°C
Winds 8.1 mph 13.0 kmh Calm Calm 3.0 mph SSW4.8 kmh SSW
Wind Gusts 17.5 mph28.2 kmh -- 10.0 mph16.1 kmh
Humidity 89% 64% 79%
Pressure 29.65 in1004.1 mb 29.56 in1001.0 mb -
Precipitation 0.52 in13.2 mm - -
Hour Temp Dew Point Humidity Winds Wind Gusts Pressure Precip Precip Rate Daily Precip Total
12:00 AM 55.9°F13.3°C 49.5°F9.7°C 79% 2.8 mph W4.5 kmh W 7.5 mph12.1 kmh 29.59 in1002.0 mb 0.00 in0.0 mm 0.00 in0.0 mm 0.00 in0.0 mm
12:15 AM 55.9°F13.3°C 49.5°F9.7°C 79% 3.0 mph WSW4.8 kmh WSW 7.5 mph12.1 kmh 29.59 in1002.0 mb 0.00 in0.0 mm 0.00 in0.0 mm 0.00 in0.0 mm
12:30 AM 55.8°F13.2°C 49.0°F9.4°C 78% 3.1 mph W5.0 kmh W 8.9 mph14.3 kmh 29.59 in1002.0 mb 0.00 in0.0 mm 0.00 in0.0 mm 0.00 in0.0 mm
12:45 AM 55.6°F13.1°C 48.8°F9.3°C 78% 4.1 mph W6.6 kmh W 8.9 mph14.3 kmh 29.59 in1002.0 mb 0.00 in0.0 mm 0.00 in0.0 mm 0.00 in0.0 mm
01:00 AM 55.6°F13.1°C 48.8°F9.3°C 78% 2.2 mph W3.5 kmh W 6.4 mph10.3 kmh 29.59 in1002.0 mb 0.00 in0.0 mm 0.00 in0.0 mm 0.00 in0.0 mm
01:15 AM 55.4°F13.0°C 48.7°F9.3°C 78% 1.7 mph SW2.7 kmh SW 6.1 mph9.8 kmh 29.59 in1002.0 mb 0.00 in0.0 mm 0.00 in0.0 mm 0.00 in0.0 mm
01:30 AM 55.4°F13.0°C 48.7°F9.3°C 78% 3.2 mph W5.1 kmh W 6.8 mph10.9 kmh 29.59 in1002.0 mb 0.00 in0.0 mm 0.00 in0.0 mm 0.00 in0.0 mm
01:45 AM 55.2°F12.9°C 47.8°F8.8°C 76% 2.5 mph W4.0 kmh W 9.7 mph15.6 kmh 29.59 in1002.0 mb 0.00 in0.0 mm 0.00 in0.0 mm 0.00 in0.0 mm
02:00 AM 55.0°F12.8°C 47.6°F8.7°C 76% 1.7 mph W2.7 kmh W 8.9 mph14.3 kmh 29.59 in1002.0 mb 0.00 in0.0 mm 0.00 in0.0 mm 0.00 in0.0 mm
02:15 AM 54.7°F12.6°C 47.3°F8.5°C 76% 1.0 mph W1.6 kmh W 4.7 mph7.6 kmh 29.59 in1002.0 mb 0.00 in0.0 mm 0.00 in0.0 mm 0.00 in0.0 mm
02:30 AM 54.5°F12.5°C 47.4°F8.6°C 77% 0.3 mph SW0.5 kmh SW 3.2 mph5.1 kmh 29.59 in1002.0 mb 0.00 in0.0 mm 0.00 in0.0 mm 0.00 in0.0 mm
02:45 AM 54.3°F12.4°C 47.3°F8.5°C 77% 1.0 mph WSW1.6 kmh WSW 6.8 mph10.9 kmh 29.59 in1002.0 mb 0.00 in0.0 mm 0.00 in0.0 mm 0.00 in0.0 mm
03:00 AM 54.3°F12.4°C 47.6°F8.7°C 78% 0.5 mph WSW0.8 kmh WSW 5.0 mph8.0 kmh 29.59 in1002.0 mb 0.00 in0.0 mm 0.00 in0.0 mm 0.00 in0.0 mm
03:15 AM 54.3°F12.4°C 47.6°F8.7°C 78% 0.6 mph W1.0 kmh W 4.7 mph7.6 kmh 29.56 in1001.0 mb 0.00 in0.0 mm 0.00 in0.0 mm 0.00 in0.0 mm
03:30 AM 54.1°F12.3°C 47.4°F8.6°C 78% 1.6 mph WSW2.6 kmh WSW 7.5 mph12.1 kmh 29.56 in1001.0 mb 0.00 in0.0 mm 0.00 in0.0 mm 0.00 in0.0 mm
03:45 AM 54.0°F12.2°C 47.3°F8.5°C 78% 1.2 mph WSW1.9 kmh WSW 6.4 mph10.3 kmh 29.56 in1001.0 mb 0.00 in0.0 mm 0.00 in0.0 mm 0.00 in0.0 mm
04:00 AM 54.3°F12.4°C 47.6°F8.7°C 78% 2.3 mph SW3.7 kmh SW 8.6 mph13.8 kmh 29.56 in1001.0 mb 0.00 in0.0 mm 0.00 in0.0 mm 0.00 in0.0 mm
04:15 AM 54.7°F12.6°C 48.0°F8.9°C 78% 3.5 mph W5.6 kmh W 11.5 mph18.5 kmh 29.59 in1002.0 mb 0.00 in0.0 mm 0.00 in0.0 mm 0.00 in0.0 mm
04:30 AM 55.2°F12.9°C 48.5°F9.2°C 78% 1.1 mph WNW1.8 kmh WNW 5.4 mph8.7 kmh 29.56 in1001.0 mb 0.00 in0.0 mm 0.00 in0.0 mm 0.00 in0.0 mm
04:45 AM 55.4°F13.0°C 49.0°F9.4°C 79% 2.3 mph WNW3.7 kmh WNW 10.4 mph16.7 kmh 29.56 in1001.0 mb 0.00 in0.0 mm 0.00 in0.0 mm 0.00 in0.0 mm
05:00 AM 55.2°F12.9°C 48.5°F9.2°C 78% 1.9 mph WSW3.1 kmh WSW 10.4 mph16.7 kmh 29.56 in1001.0 mb 0.00 in0.0 mm 0.00 in0.0 mm 0.00 in0.0 mm
05:15 AM 55.4°F13.0°C 48.7°F9.3°C 78% 1.7 mph W2.7 kmh W 9.7 mph15.6 kmh 29.56 in1001.0 mb 0.00 in0.0 mm 0.00 in0.0 mm 0.00 in0.0 mm
05:30 AM 55.6°F13.1°C 48.8°F9.3°C 78% 1.5 mph WSW2.4 kmh WSW 5.0 mph8.0 kmh 29.56 in1001.0 mb 0.00 in0.0 mm 0.00 in0.0 mm 0.00 in0.0 mm
05:45 AM 55.6°F13.1°C 48.8°F9.3°C 78% 2.8 mph SSW4.5 kmh SSW 14.0 mph22.5 kmh 29.59 in1002.0 mb 0.00 in0.0 mm 0.00 in0.0 mm 0.00 in0.0 mm
06:00 AM 55.4°F13.0°C 49.0°F9.4°C 79% 4.8 mph S7.7 kmh S 11.5 mph18.5 kmh 29.56 in1001.0 mb 0.00 in0.0 mm 0.00 in0.0 mm 0.00 in0.0 mm
06:15 AM 56.1°F13.4°C 50.4°F10.2°C 81% 2.4 mph S3.9 kmh S 10.0 mph16.1 kmh 29.56 in1001.0 mb 0.00 in0.0 mm 0.00 in0.0 mm 0.00 in0.0 mm
06:30 AM 56.8°F13.8°C 50.7°F10.4°C 80% 2.0 mph WSW3.2 kmh WSW 9.3 mph15.0 kmh 29.56 in1001.0 mb 0.00 in0.0 mm 0.00 in0.0 mm 0.00 in0.0 mm
06:45 AM 56.7°F13.7°C 50.2°F10.1°C 79% 1.1 mph W1.8 kmh W 5.4 mph8.7 kmh 29.56 in1001.0 mb 0.00 in0.0 mm 0.00 in0.0 mm 0.00 in0.0 mm
07:00 AM 56.8°F13.8°C 50.4°F10.2°C 79% 1.1 mph WNW1.8 kmh WNW 6.4 mph10.3 kmh 29.59 in1002.0 mb 0.00 in0.0 mm 0.00 in0.0 mm 0.00 in0.0 mm
07:15 AM 56.8°F13.8°C 50.4°F10.2°C 79% 1.1 mph S1.8 kmh S 6.4 mph10.3 kmh 29.59 in1002.0 mb 0.00 in0.0 mm 0.00 in0.0 mm 0.00 in0.0 mm
07:30 AM 56.8°F13.8°C 50.4°F10.2°C 79% 0.8 mph W1.3 kmh W 4.7 mph7.6 kmh 29.59 in1002.0 mb 0.00 in0.0 mm 0.00 in0.0 mm 0.00 in0.0 mm
07:45 AM 56.7°F13.7°C 50.2°F10.1°C 79% 1.1 mph S1.8 kmh S 9.3 mph15.0 kmh 29.59 in1002.0 mb 0.00 in0.0 mm 0.00 in0.0 mm 0.00 in0.0 mm
08:00 AM 56.7°F13.7°C 50.2°F10.1°C 79% 2.9 mph S4.7 kmh S 10.4 mph16.7 kmh 29.59 in1002.0 mb 0.00 in0.0 mm 0.00 in0.0 mm 0.00 in0.0 mm
08:15 AM 56.7°F13.7°C 50.6°F10.3°C 80% 3.4 mph SSE5.5 kmh SSE 10.0 mph16.1 kmh 29.59 in1002.0 mb 0.00 in0.0 mm 0.00 in0.0 mm 0.00 in0.0 mm
08:30 AM 56.3°F13.5°C 50.2°F10.1°C 80% 8.1 mph SE13.0 kmh SE 17.5 mph28.2 kmh 29.59 in1002.0 mb 0.00 in0.0 mm 0.00 in0.0 mm 0.00 in0.0 mm
08:45 AM 56.1°F13.4°C 50.0°F10.0°C 80% 6.1 mph SE9.8 kmh SE 12.2 mph19.6 kmh 29.59 in1002.0 mb 0.00 in0.0 mm 0.00 in0.0 mm 0.00 in0.0 mm
09:00 AM 55.6°F13.1°C 49.8°F9.9°C 81% 5.9 mph SE9.5 kmh SE 13.6 mph21.9 kmh 29.59 in1002.0 mb 0.00 in0.0 mm 0.00 in0.0 mm 0.00 in0.0 mm
09:15 AM 55.2°F12.9°C 49.8°F9.9°C 82% 4.6 mph SSE7.4 kmh SSE 11.8 mph19.0 kmh 29.62 in1003.0 mb 0.00 in0.0 mm 0.00 in0.0 mm 0.00 in0.0 mm
09:30 AM 55.6°F13.1°C 50.5°F10.3°C 83% 5.8 mph SE9.3 kmh SE 12.5 mph20.1 kmh 29.59 in1002.0 mb 0.00 in0.0 mm 0.00 in0.0 mm 0.00 in0.0 mm
09:45 AM 56.5°F13.6°C 52.0°F11.1°C 85% 6.7 mph SE10.8 kmh SE 16.8 mph27.0 kmh 29.59 in1002.0 mb 0.00 in0.0 mm 0.00 in0.0 mm 0.00 in0.0 mm
10:00 AM 57.4°F14.1°C 52.9°F11.6°C 85% 6.0 mph SE9.7 kmh SE 10.7 mph17.2 kmh 29.59 in1002.0 mb 0.00 in0.0 mm 0.00 in0.0 mm 0.00 in0.0 mm
10:15 AM 57.4°F14.1°C 52.6°F11.4°C 84% 3.9 mph SE6.3 kmh SE 12.2 mph19.6 kmh 29.62 in1003.0 mb 0.00 in0.0 mm 0.00 in0.0 mm 0.00 in0.0 mm
10:30 AM 59.0°F15.0°C 54.2°F12.3°C 84% 1.7 mph SE2.7 kmh SE 8.6 mph13.8 kmh 29.59 in1002.0 mb 0.00 in0.0 mm 0.00 in0.0 mm 0.00 in0.0 mm
10:45 AM 61.0°F16.1°C 55.8°F13.2°C 83% 4.3 mph SE6.9 kmh SE 10.0 mph16.1 kmh 29.62 in1003.0 mb 0.00 in0.0 mm 0.00 in0.0 mm 0.00 in0.0 mm
11:00 AM 61.5°F16.4°C 54.6°F12.6°C 78% 7.1 mph SE11.4 kmh SE 15.7 mph25.3 kmh 29.59 in1002.0 mb 0.00 in0.0 mm 0.00 in0.0 mm 0.00 in0.0 mm
11:15 AM 59.0°F15.0°C 51.4°F10.8°C 76% 3.4 mph SSW5.5 kmh SSW 13.6 mph21.9 kmh 29.62 in1003.0 mb 0.14 in3.6 mm 0.56 in14.2 mm 0.14 in3.6 mm
11:30 AM 57.9°F14.4°C 51.4°F10.8°C 79% 3.6 mph SE5.8 kmh SE 6.8 mph10.9 kmh 29.62 in1003.0 mb 0.14 in3.6 mm 0.00 in0.0 mm 0.14 in3.6 mm
11:45 AM 57.9°F14.4°C 52.1°F11.2°C 81% 4.5 mph SE7.2 kmh SE 9.7 mph15.6 kmh 29.62 in1003.0 mb 0.19 in4.8 mm 0.20 in5.1 mm 0.18 in4.6 mm
12:00 PM 58.8°F14.9°C 53.3°F11.8°C 82% 4.8 mph SE7.7 kmh SE 10.4 mph16.7 kmh 29.62 in1003.0 mb 0.19 in4.8 mm 0.00 in0.0 mm 0.18 in4.6 mm
12:15 PM 58.6°F14.8°C 53.2°F11.8°C 82% 4.0 mph S6.4 kmh S 13.6 mph21.9 kmh 29.62 in1003.0 mb 0.05 in1.3 mm 0.00 in0.0 mm 0.18 in4.6 mm
12:30 PM 57.7°F14.3°C 51.9°F11.1°C 81% 3.2 mph S5.1 kmh S 9.3 mph15.0 kmh 29.62 in1003.0 mb 0.00 in0.0 mm 0.00 in0.0 mm 0.18 in4.6 mm
12:45 PM 57.6°F14.2°C 52.4°F11.3°C 83% 1.2 mph S1.9 kmh S 6.4 mph10.3 kmh 29.62 in1003.0 mb 0.00 in0.0 mm 0.00 in0.0 mm 0.18 in4.6 mm
01:00 PM 57.7°F14.3°C 52.6°F11.4°C 83% Calm Calm -- 29.62 in1003.0 mb 0.05 in1.3 mm 0.07 in1.8 mm 0.23 in5.8 mm
01:15 PM 58.6°F14.8°C 53.8°F12.1°C 84% Calm Calm 2.5 mph4.0 kmh 29.59 in1002.0 mb 0.05 in1.3 mm 0.00 in0.0 mm 0.23 in5.8 mm
01:30 PM 58.8°F14.9°C 54.0°F12.2°C 84% 1.0 mph N1.6 kmh N 6.4 mph10.3 kmh 29.59 in1002.0 mb 0.05 in1.3 mm 0.00 in0.0 mm 0.23 in5.8 mm
01:45 PM 59.7°F15.4°C 54.5°F12.5°C 83% 0.8 mph N1.3 kmh N 9.7 mph15.6 kmh 29.59 in1002.0 mb 0.05 in1.3 mm 0.00 in0.0 mm 0.23 in5.8 mm
02:00 PM 60.1°F15.6°C 53.9°F12.2°C 80% 1.0 mph N1.6 kmh N 5.7 mph9.2 kmh 29.59 in1002.0 mb 0.00 in0.0 mm 0.00 in0.0 mm 0.23 in5.8 mm
02:15 PM 61.2°F16.2°C 54.9°F12.7°C 80% 5.9 mph SW9.5 kmh SW 15.0 mph24.1 kmh 29.59 in1002.0 mb 0.00 in0.0 mm 0.00 in0.0 mm 0.23 in5.8 mm
02:30 PM 62.4°F16.9°C 56.5°F13.6°C 81% 4.7 mph S7.6 kmh S 12.9 mph20.8 kmh 29.59 in1002.0 mb 0.00 in0.0 mm 0.00 in0.0 mm 0.23 in5.8 mm
02:45 PM 63.3°F17.4°C 56.0°F13.3°C 77% 4.8 mph WSW7.7 kmh WSW 11.8 mph19.0 kmh 29.59 in1002.0 mb 0.00 in0.0 mm 0.00 in0.0 mm 0.23 in5.8 mm
03:00 PM 63.1°F17.3°C 54.3°F12.4°C 73% 4.6 mph SW7.4 kmh SW 10.4 mph16.7 kmh 29.59 in1002.0 mb 0.00 in0.0 mm 0.00 in0.0 mm 0.23 in5.8 mm
03:15 PM 63.0°F17.2°C 53.4°F11.9°C 71% 5.7 mph WSW9.2 kmh WSW 12.2 mph19.6 kmh 29.59 in1002.0 mb 0.00 in0.0 mm 0.00 in0.0 mm 0.23 in5.8 mm
03:30 PM 63.3°F17.4°C 53.8°F12.1°C 71% 4.2 mph WSW6.8 kmh WSW 10.4 mph16.7 kmh 29.59 in1002.0 mb 0.00 in0.0 mm 0.00 in0.0 mm 0.23 in5.8 mm
03:45 PM 63.5°F17.5°C 53.1°F11.7°C 69% 4.2 mph WSW6.8 kmh WSW 11.5 mph18.5 kmh 29.59 in1002.0 mb 0.00 in0.0 mm 0.00 in0.0 mm 0.23 in5.8 mm
04:00 PM 64.6°F18.1°C 54.2°F12.3°C 69% 4.9 mph WSW7.9 kmh WSW 12.9 mph20.8 kmh 29.59 in1002.0 mb 0.00 in0.0 mm 0.00 in0.0 mm 0.23 in5.8 mm
04:15 PM 64.8°F18.2°C 53.5°F11.9°C 67% 5.5 mph SW8.9 kmh SW 11.5 mph18.5 kmh 29.59 in1002.0 mb 0.00 in0.0 mm 0.00 in0.0 mm 0.23 in5.8 mm
04:30 PM 63.5°F17.5°C 51.1°F10.6°C 64% 4.5 mph WSW7.2 kmh WSW 9.3 mph15.0 kmh 29.59 in1002.0 mb 0.00 in0.0 mm 0.00 in0.0 mm 0.23 in5.8 mm
04:45 PM 62.4°F16.9°C 50.9°F10.5°C 66% 2.9 mph W4.7 kmh W 6.4 mph10.3 kmh 29.59 in1002.0 mb 0.00 in0.0 mm 0.00 in0.0 mm 0.23 in5.8 mm
05:00 PM 62.6°F17.0°C 50.7°F10.4°C 65% 3.4 mph WSW5.5 kmh WSW 10.4 mph16.7 kmh 29.59 in1002.0 mb 0.00 in0.0 mm 0.00 in0.0 mm 0.23 in5.8 mm
05:15 PM 62.4°F16.9°C 50.9°F10.5°C 66% 4.2 mph W6.8 kmh W 12.2 mph19.6 kmh 29.59 in1002.0 mb 0.00 in0.0 mm 0.00 in0.0 mm 0.23 in5.8 mm
05:30 PM 61.9°F16.6°C 50.8°F10.4°C 67% 4.7 mph SSW7.6 kmh SSW 12.2 mph19.6 kmh 29.59 in1002.0 mb 0.00 in0.0 mm 0.00 in0.0 mm 0.23 in5.8 mm
05:45 PM 61.0°F16.1°C 50.3°F10.2°C 68% 3.6 mph S5.8 kmh S 11.8 mph19.0 kmh 29.59 in1002.0 mb 0.00 in0.0 mm 0.00 in0.0 mm 0.23 in5.8 mm
06:00 PM 59.7°F15.4°C 49.9°F9.9°C 70% 3.4 mph S5.5 kmh S 9.3 mph15.0 kmh 29.59 in1002.0 mb 0.00 in0.0 mm 0.00 in0.0 mm 0.23 in5.8 mm
06:15 PM 58.8°F14.9°C 49.8°F9.9°C 72% 3.4 mph S5.5 kmh S 12.5 mph20.1 kmh 29.59 in1002.0 mb 0.00 in0.0 mm 0.00 in0.0 mm 0.23 in5.8 mm
06:30 PM 57.7°F14.3°C 49.5°F9.7°C 74% 3.7 mph SSE6.0 kmh SSE 14.0 mph22.5 kmh 29.59 in1002.0 mb 0.00 in0.0 mm 0.00 in0.0 mm 0.23 in5.8 mm
06:45 PM 56.7°F13.7°C 49.5°F9.7°C 77% 7.1 mph SSE11.4 kmh SSE 15.7 mph25.3 kmh 29.59 in1002.0 mb 0.00 in0.0 mm 0.00 in0.0 mm 0.23 in5.8 mm
07:00 PM 55.9°F13.3°C 49.2°F9.6°C 78% 3.3 mph ESE5.3 kmh ESE 10.0 mph16.1 kmh 29.59 in1002.0 mb 0.00 in0.0 mm 0.00 in0.0 mm 0.23 in5.8 mm
07:15 PM 55.4°F13.0°C 49.0°F9.4°C 79% 2.6 mph SE4.2 kmh SE 11.5 mph18.5 kmh 29.59 in1002.0 mb 0.00 in0.0 mm 0.00 in0.0 mm 0.23 in5.8 mm
07:30 PM 55.2°F12.9°C 49.2°F9.6°C 80% 0.9 mph NW1.4 kmh NW 5.0 mph8.0 kmh 29.62 in1003.0 mb 0.00 in0.0 mm 0.00 in0.0 mm 0.23 in5.8 mm
07:45 PM 55.0°F12.8°C 49.3°F9.6°C 81% Calm Calm -- 29.62 in1003.0 mb 0.00 in0.0 mm 0.00 in0.0 mm 0.23 in5.8 mm
08:00 PM 54.9°F12.7°C 49.5°F9.7°C 82% 0.4 mph E0.6 kmh E 5.0 mph8.0 kmh 29.62 in1003.0 mb 0.00 in0.0 mm 0.00 in0.0 mm 0.23 in5.8 mm
08:15 PM 54.5°F12.5°C 49.1°F9.5°C 82% 2.0 mph E3.2 kmh E 11.5 mph18.5 kmh 29.62 in1003.0 mb 0.05 in1.3 mm 0.20 in5.1 mm 0.28 in7.1 mm
08:30 PM 54.0°F12.2°C 48.6°F9.2°C 82% 4.4 mph S7.1 kmh S 11.5 mph18.5 kmh 29.62 in1003.0 mb 0.05 in1.3 mm 0.00 in0.0 mm 0.28 in7.1 mm
08:46 PM 53.2°F11.8°C 48.2°F9.0°C 83% 2.7 mph SSE4.3 kmh SSE 12.2 mph19.6 kmh 29.62 in1003.0 mb 0.15 in3.8 mm 0.38 in9.7 mm 0.38 in9.7 mm
09:00 PM 53.1°F11.7°C 48.4°F9.1°C 84% 5.5 mph SE8.9 kmh SE 10.4 mph16.7 kmh 29.62 in1003.0 mb 0.19 in4.8 mm 0.05 in1.3 mm 0.43 in10.9 mm
09:15 PM 52.9°F11.6°C 48.2°F9.0°C 84% 3.5 mph SE5.6 kmh SE 12.2 mph19.6 kmh 29.62 in1003.0 mb 0.15 in3.8 mm 0.00 in0.0 mm 0.43 in10.9 mm
09:30 PM 53.1°F11.7°C 48.7°F9.3°C 85% 4.3 mph SSE6.9 kmh SSE 10.7 mph17.2 kmh 29.62 in1003.0 mb 0.19 in4.8 mm 0.16 in4.1 mm 0.47 in11.9 mm
09:45 PM 53.1°F11.7°C 49.0°F9.4°C 86% 5.0 mph SSE8.0 kmh SSE 11.8 mph19.0 kmh 29.62 in1003.0 mb 0.09 in2.3 mm 0.00 in0.0 mm 0.47 in11.9 mm
10:00 PM 52.9°F11.6°C 49.1°F9.5°C 87% 6.0 mph SSE9.7 kmh SSE 12.9 mph20.8 kmh 29.65 in1004.1 mb 0.05 in1.3 mm 0.00 in0.0 mm 0.47 in11.9 mm
10:15 PM 52.5°F11.4°C 48.8°F9.3°C 87% 5.6 mph S9.0 kmh S 12.5 mph20.1 kmh 29.62 in1003.0 mb 0.05 in1.3 mm 0.00 in0.0 mm 0.47 in11.9 mm
10:30 PM 52.3°F11.3°C 48.6°F9.2°C 87% 5.0 mph S8.0 kmh S 10.4 mph16.7 kmh 29.65 in1004.1 mb 0.05 in1.3 mm 0.00 in0.0 mm 0.52 in13.2 mm
10:45 PM 52.3°F11.3°C 48.9°F9.4°C 88% 4.9 mph S7.9 kmh S 12.2 mph19.6 kmh 29.62 in1003.0 mb 0.05 in1.3 mm 0.00 in0.0 mm 0.52 in13.2 mm
11:00 PM 52.3°F11.3°C 48.9°F9.4°C 88% 3.4 mph S5.5 kmh S 11.5 mph18.5 kmh 29.59 in1002.0 mb 0.05 in1.3 mm 0.00 in0.0 mm 0.47 in11.9 mm
11:15 PM 52.2°F11.2°C 48.7°F9.3°C 88% 3.0 mph S4.8 kmh S 7.9 mph12.7 kmh 29.59 in1002.0 mb 0.09 in2.3 mm 0.16 in4.1 mm 0.05 in1.3 mm
11:30 PM 52.2°F11.2°C 48.7°F9.3°C 88% 4.2 mph SSE6.8 kmh SSE 11.5 mph18.5 kmh 29.59 in1002.0 mb 0.05 in1.3 mm 0.00 in0.0 mm 0.05 in1.3 mm
11:45 PM 52.2°F11.2°C 49.0°F9.4°C 89% 4.3 mph SE6.9 kmh SE 8.9 mph14.3 kmh 29.62 in1003.0 mb 0.05 in1.3 mm 0.00 in0.0 mm 0.05 in1.3 mm